Time;durP1;ratioP1;P1;durP2;ratioP2;P2;SDS_P1;SDS_P2;PMS_P1;PMS_P2;Temp;Humidity;BMP_temperature;BMP_pressure;BME280_temperature;BME280_humidity;BME280_pressure;Samples;Min_cycle;Max_cycle;Signal;HPM_P1;HPM_P2
2022/05/31 00:01:27;;;;;;;4.65;3.13;;;;;;;17.03;80.26;94645.31;5053410;28;20223;-77
2022/05/31 00:03:53;;;;;;;4.70;3.00;;;;;;;17.08;80.81;94646.16;5052742;28;20228;-77
2022/05/31 00:06:20;;;;;;;6.95;3.60;;;;;;;17.00;80.48;94643.28;5053616;28;20281;-78
2022/05/31 00:08:49;;;;;;;7.88;3.28;;;;;;;17.03;80.64;94639.84;5053392;28;20782;-78
2022/05/31 00:11:16;;;;;;;4.22;3.25;;;;;;;17.08;79.93;94648.91;5053735;28;20207;-78
2022/05/31 00:13:43;;;;;;;7.78;3.55;;;;;;;17.15;80.02;94640.78;5052861;28;20239;-78
2022/05/31 00:16:10;;;;;;;10.13;3.80;;;;;;;16.96;81.74;94639.72;5053532;28;20224;-78
2022/05/31 00:18:37;;;;;;;5.45;3.45;;;;;;;16.89;81.91;94636.88;5053169;28;20287;-78
2022/05/31 00:21:04;;;;;;;6.75;3.63;;;;;;;16.77;82.69;94639.81;5033827;28;20209;-77
2022/05/31 00:23:31;;;;;;;6.40;3.60;;;;;;;16.81;82.94;94642.63;5046402;28;20204;-77
2022/05/31 00:26:01;;;;;;;8.05;3.78;;;;;;;16.61;84.16;94645.38;5053408;28;20214;-78
2022/05/31 00:28:28;;;;;;;6.47;3.40;;;;;;;16.57;84.10;94632.78;5053070;28;20664;-77
2022/05/31 00:30:55;;;;;;;5.82;3.08;;;;;;;16.53;83.98;94637.44;5053433;28;20204;-77
2022/05/31 00:33:21;;;;;;;9.45;3.47;;;;;;;16.59;83.67;94641.44;5052564;28;20235;-77
2022/05/31 00:35:49;;;;;;;4.68;2.85;;;;;;;16.63;83.50;94642.31;5053021;28;20224;-77
2022/05/31 00:38:18;;;;;;;6.35;3.38;;;;;;;16.70;82.47;94640.47;5052134;28;20207;-76
2022/05/31 00:40:45;;;;;;;6.43;4.43;;;;;;;16.78;82.72;94641.41;5052487;28;20211;-77
2022/05/31 00:43:16;;;;;;;7.60;4.72;;;;;;;16.70;82.70;94637.75;5052911;28;20207;-78
2022/05/31 00:45:47;;;;;;;6.15;3.83;;;;;;;16.65;82.73;94640.00;5052688;28;20224;-77
2022/05/31 00:48:17;;;;;;;5.18;3.35;;;;;;;16.71;82.04;94644.00;5052629;28;20582;-78
2022/05/31 00:50:48;;;;;;;5.95;3.22;;;;;;;16.80;81.75;94641.81;5052947;28;20223;-77
2022/05/31 00:53:19;;;;;;;8.95;3.53;;;;;;;16.72;81.84;94644.78;5052683;28;20199;-78
2022/05/31 00:55:50;;;;;;;8.20;3.60;;;;;;;16.77;81.64;94639.81;5052701;28;20754;-78
2022/05/31 00:58:22;;;;;;;6.78;3.20;;;;;;;16.63;81.01;94620.44;5052720;28;20192;-78
2022/05/31 01:00:51;;;;;;;4.25;2.70;;;;;;;16.82;81.24;94639.47;5052164;28;20192;-77
2022/05/31 01:03:20;;;;;;;5.65;3.28;;;;;;;16.78;81.29;94649.59;5051819;28;20722;-77
2022/05/31 01:05:46;;;;;;;6.32;2.97;;;;;;;16.73;81.20;94654.56;5052360;28;20239;-77
2022/05/31 01:08:14;;;;;;;7.68;3.40;;;;;;;16.63;81.82;94653.25;5052485;28;20228;-77
2022/05/31 01:10:42;;;;;;;5.28;3.13;;;;;;;16.72;81.47;94656.53;5051896;28;20662;-78
2022/05/31 01:13:10;;;;;;;6.80;3.28;;;;;;;16.76;81.34;94651.91;5051538;28;20240;-77
2022/05/31 01:15:39;;;;;;;5.43;3.08;;;;;;;16.72;81.29;94659.25;5052005;28;20208;-77
2022/05/31 01:18:06;;;;;;;9.75;3.47;;;;;;;16.70;81.59;94654.16;5052232;28;20616;-77
2022/05/31 01:20:34;;;;;;;5.65;3.05;;;;;;;16.70;80.99;94656.09;5051965;28;20734;-77
2022/05/31 01:23:07;;;;;;;7.03;3.33;;;;;;;16.62;81.82;94657.94;5052048;28;20231;-77
2022/05/31 01:25:46;;;;;;;6.38;3.17;;;;;;;16.63;81.94;94658.72;5051882;28;20219;-77
2022/05/31 01:28:21;;;;;;;6.88;2.95;;;;;;;16.64;81.36;94666.56;5052184;28;20254;-79
2022/05/31 01:30:56;;;;;;;7.43;3.20;;;;;;;16.68;81.13;94656.47;5051620;28;20214;-77
2022/05/31 01:33:28;;;;;;;9.55;3.08;;;;;;;16.64;81.51;94661.09;5051652;28;20277;-77
2022/05/31 01:36:02;;;;;;;5.85;3.10;;;;;;;16.57;81.44;94660.13;5050215;28;20266;-77
2022/05/31 01:38:35;;;;;;;4.78;2.72;;;;;;;16.54;81.45;94661.66;5051013;28;20204;-77
2022/05/31 01:41:11;;;;;;;6.43;2.90;;;;;;;16.37;81.82;94664.09;5051664;28;20191;-77
2022/05/31 01:43:42;;;;;;;3.78;2.70;;;;;;;16.39;82.35;94659.06;5052282;28;20188;-77
2022/05/31 01:46:13;;;;;;;4.18;2.75;;;;;;;16.37;82.35;94645.75;5051187;28;20250;-76
2022/05/31 01:48:42;;;;;;;9.02;3.47;;;;;;;16.38;81.80;94652.00;5051032;28;20200;-77
2022/05/31 01:51:11;;;;;;;6.28;3.00;;;;;;;16.46;82.47;94649.03;5051239;28;20251;-76
2022/05/31 01:53:38;;;;;;;4.47;3.25;;;;;;;16.46;82.60;94643.56;5051752;28;20199;-77
2022/05/31 01:56:08;;;;;;;8.93;3.53;;;;;;;16.27;83.59;94647.13;5051426;28;20235;-77
2022/05/31 01:58:38;;;;;;;4.18;2.88;;;;;;;16.09;84.48;94646.00;5051437;28;20219;-77
2022/05/31 02:01:07;;;;;;;4.53;3.13;;;;;;;15.98;85.20;94651.28;5051300;28;20285;-77
2022/05/31 02:03:34;;;;;;;9.82;2.97;;;;;;;16.02;85.10;94651.31;5051064;28;20224;-77
2022/05/31 02:06:01;;;;;;;6.78;3.30;;;;;;;16.30;83.91;94662.00;5051027;28;20243;-76
2022/05/31 02:08:30;;;;;;;7.60;3.50;;;;;;;16.30;83.39;94657.31;5051082;28;20216;-76
2022/05/31 02:10:57;;;;;;;6.70;3.38;;;;;;;16.20;83.89;94655.19;5051254;28;20231;-76
2022/05/31 02:13:25;;;;;;;4.70;2.85;;;;;;;16.19;83.75;94656.34;5050809;28;20231;-77
2022/05/31 02:15:53;;;;;;;7.93;3.28;;;;;;;16.19;84.22;94650.88;5050605;28;20242;-79
2022/05/31 02:18:20;;;;;;;7.55;3.28;;;;;;;16.23;84.33;94656.41;5051298;28;20202;-77
2022/05/31 02:20:46;;;;;;;8.05;3.35;;;;;;;16.14;84.51;94658.56;5050983;28;20200;-78
2022/05/31 02:23:13;;;;;;;7.25;3.30;;;;;;;16.13;84.79;94663.25;5051336;28;20819;-77
2022/05/31 02:25:41;;;;;;;5.30;2.97;;;;;;;16.13;84.69;94662.47;5050943;28;20238;-77
2022/05/31 02:28:08;;;;;;;7.45;3.42;;;;;;;16.21;84.36;94664.19;5051206;28;20223;-77
2022/05/31 02:30:35;;;;;;;6.40;3.10;;;;;;;16.20;84.41;94663.41;5050990;28;20231;-77
2022/05/31 02:33:02;;;;;;;6.45;2.97;;;;;;;16.18;84.64;94665.69;5051189;28;20230;-77
2022/05/31 02:35:29;;;;;;;5.82;3.47;;;;;;;16.16;84.29;94676.19;5051114;28;20245;-77
2022/05/31 02:37:58;;;;;;;4.82;3.17;;;;;;;16.19;84.46;94667.28;5050805;28;20215;-77
2022/05/31 02:40:27;;;;;;;5.20;3.28;;;;;;;16.20;84.26;94655.19;5051778;28;20199;-78
2022/05/31 02:42:55;;;;;;;6.25;3.63;;;;;;;16.09;84.17;94656.16;5051195;28;20272;-77
2022/05/31 02:45:22;;;;;;;5.18;2.97;;;;;;;16.00;84.55;94657.16;5050567;28;20266;-77
2022/05/31 02:47:49;;;;;;;11.23;2.90;;;;;;;16.00;84.43;94659.09;5054549;28;20200;-77
2022/05/31 02:50:16;;;;;;;7.13;3.13;;;;;;;15.93;84.95;94661.69;5055021;28;20216;-77
2022/05/31 02:52:43;;;;;;;7.22;3.38;;;;;;;15.85;84.14;94663.47;5054971;28;20720;-77
2022/05/31 02:55:10;;;;;;;7.40;3.20;;;;;;;15.95;84.55;94670.34;5055275;28;20218;-77
2022/05/31 02:57:37;;;;;;;7.50;3.17;;;;;;;16.03;83.65;94663.84;5054798;28;20273;-77
2022/05/31 03:00:08;;;;;;;5.88;3.33;;;;;;;16.00;83.53;94670.81;5055068;28;20234;-77
2022/05/31 03:02:36;;;;;;;4.65;2.92;;;;;;;15.71;83.20;94679.63;5054584;28;20351;-77
2022/05/31 03:05:04;;;;;;;5.65;2.80;;;;;;;15.44;84.17;94691.47;5054896;28;20233;-77
2022/05/31 03:07:31;;;;;;;6.25;2.80;;;;;;;15.35;84.62;94683.47;5054577;28;20663;-77
2022/05/31 03:09:58;;;;;;;11.18;3.63;;;;;;;15.49;84.60;94686.50;5054680;28;20230;-77
2022/05/31 03:12:28;;;;;;;7.05;3.33;;;;;;;15.72;84.08;94685.84;5054006;28;20629;-78
2022/05/31 03:15:01;;;;;;;4.03;2.58;;;;;;;16.12;83.30;94693.69;5054356;28;20338;-77
2022/05/31 03:17:34;;;;;;;7.90;3.40;;;;;;;16.80;80.68;94693.81;5054257;28;20651;-76
2022/05/31 03:20:07;;;;;;;5.57;3.08;;;;;;;17.09;78.06;94686.03;5054613;28;20188;-77
2022/05/31 03:22:40;;;;;;;7.22;4.28;;;;;;;17.30;78.16;94686.38;5054392;28;20254;-77
2022/05/31 03:25:12;;;;;;;8.75;4.32;;;;;;;18.33;75.90;94690.47;5053784;28;20266;-76
2022/05/31 03:27:39;;;;;;;10.00;4.45;;;;;;;19.31;72.94;94686.28;5054357;28;20705;-77
2022/05/31 03:30:07;;;;;;;7.10;4.57;;;;;;;19.96;70.16;94682.78;5054106;28;20219;-77
2022/05/31 03:32:37;;;;;;;8.35;4.45;;;;;;;20.57;68.24;94685.41;5053503;28;20578;-77
2022/05/31 03:35:06;;;;;;;11.98;4.60;;;;;;;20.94;66.67;94687.03;5053809;28;20516;-78
2022/05/31 03:37:33;;;;;;;7.75;4.53;;;;;;;20.79;66.35;94690.94;5044930;28;20552;-78
2022/05/31 03:40:00;;;;;;;11.20;4.75;;;;;;;20.57;66.58;94690.13;5049745;28;20195;-78
2022/05/31 03:42:27;;;;;;;10.63;5.05;;;;;;;20.60;66.57;94705.06;5053498;28;20709;-78
2022/05/31 03:44:54;;;;;;;8.07;3.90;;;;;;;20.41;66.95;94698.72;5053934;28;20215;-78
2022/05/31 03:47:21;;;;;;;5.85;4.10;;;;;;;20.34;67.47;94703.38;5053452;28;20235;-77
2022/05/31 03:49:49;;;;;;;8.05;4.18;;;;;;;20.77;66.26;94701.56;5049129;28;20226;-78
2022/05/31 03:52:15;;;;;;;8.20;5.07;;;;;;;;;;5047017;28;20234;-78
2022/05/31 03:54:42;;;;;;;7.57;5.25;;;;;;;22.62;60.77;94694.59;5053834;28;20249;-76
2022/05/31 03:57:15;;;;;;;10.15;5.90;;;;;;;23.33;58.39;94694.13;5048145;28;20219;-78
2022/05/31 03:59:42;;;;;;;9.63;5.00;;;;;;;24.11;56.35;94689.84;5052553;28;20286;-76
2022/05/31 04:02:08;;;;;;;7.28;5.30;;;;;;;24.75;54.55;94687.06;5053065;28;20326;-77
2022/05/31 04:04:36;;;;;;;10.27;5.15;;;;;;;25.22;53.47;94684.44;5052898;28;20243;-77
2022/05/31 04:07:05;;;;;;;9.50;5.32;;;;;;;26.09;50.56;94686.13;5053014;28;20231;-80
2022/05/31 04:09:31;;;;;;;10.85;5.30;;;;;;;26.07;50.36;94691.31;5053244;28;20224;-78
2022/05/31 04:11:59;;;;;;;9.02;5.55;;;;;;;26.48;49.42;94681.81;5052117;28;20325;-78
2022/05/31 04:14:26;;;;;;;10.38;5.35;;;;;;;26.90;48.74;94689.22;5052664;28;20203;-80
2022/05/31 04:16:53;;;;;;;7.72;5.30;;;;;;;27.00;47.76;94689.44;5052481;28;20565;-77
2022/05/31 04:19:20;;;;;;;6.50;4.72;;;;;;;26.83;48.29;94681.03;5052511;28;20616;-77
2022/05/31 04:21:47;;;;;;;8.15;5.00;;;;;;;28.29;45.59;94689.38;5052715;28;20204;-77
2022/05/31 04:24:16;;;;;;;8.05;4.90;;;;;;;28.46;44.65;94681.75;5052424;28;20273;-77
2022/05/31 04:26:45;;;;;;;7.40;5.32;;;;;;;28.96;43.94;94694.28;5052063;28;20231;-78
2022/05/31 04:29:12;;;;;;;7.50;4.68;;;;;;;29.40;42.75;94689.72;5051902;28;20590;-81
2022/05/31 04:31:38;;;;;;;7.90;4.93;;;;;;;29.89;41.56;94706.06;5052418;28;20231;-80
2022/05/31 04:34:11;;;;;;;6.45;4.88;;;;;;;29.80;42.33;94703.94;5039144;28;20293;-81
2022/05/31 04:36:38;;;;;;;8.60;5.03;;;;;;;30.13;41.10;94704.47;5052943;28;20605;-77
2022/05/31 04:39:05;;;;;;;10.98;5.22;;;;;;;30.16;40.86;94706.38;5053018;28;20203;-82
2022/05/31 04:41:39;;;;;;;8.40;4.65;;;;;;;30.42;40.98;94709.84;5051616;28;20594;-82
2022/05/31 04:44:06;;;;;;;6.82;4.53;;;;;;;31.08;39.31;94703.00;5062196;28;20600;-79
2022/05/31 04:46:35;;;;;;;8.60;4.57;;;;;;;31.33;39.04;94701.25;5055314;28;20243;-79
2022/05/31 04:49:03;;;;;;;8.90;4.78;;;;;;;31.41;38.78;94705.34;5052366;28;20582;-77
2022/05/31 04:51:32;;;;;;;9.02;5.53;;;;;;;30.58;40.25;94700.50;5052025;28;20251;-77
2022/05/31 04:53:59;;;;;;;8.32;4.82;;;;;;;28.57;44.29;94721.25;5051956;28;20270;-84
2022/05/31 04:56:27;;;;;;;10.07;5.40;;;;;;;28.08;45.86;94722.59;5042804;28;20295;-82
2022/05/31 04:58:56;;;;;;;11.10;5.13;;;;;;;28.49;44.97;94722.69;5042843;28;20199;-78
2022/05/31 05:01:24;;;;;;;8.68;5.03;;;;;;;29.75;42.57;94717.72;5045371;28;20216;-76
2022/05/31 05:03:51;;;;;;;7.28;5.38;;;;;;;29.47;42.92;94723.00;5043645;28;20226;-81
2022/05/31 05:06:19;;;;;;;10.23;5.15;;;;;;;29.13;43.46;94728.41;5040387;28;20224;-77
2022/05/31 05:08:47;;;;;;;7.25;4.65;;;;;;;29.49;42.54;94728.94;5039820;28;20220;-81
2022/05/31 05:11:19;;;;;;;5.80;4.70;;;;;;;29.72;42.05;94721.41;5040984;28;20199;-81
2022/05/31 05:13:47;;;;;;;11.00;5.03;;;;;;;29.67;41.67;94723.53;5047797;28;20289;-79
2022/05/31 05:16:17;;;;;;;8.45;4.35;;;;;;;29.37;42.11;94726.91;5043788;28;20233;-80
2022/05/31 05:18:44;;;;;;;13.20;4.93;;;;;;;28.61;43.50;94732.31;5040248;28;20678;-79
2022/05/31 05:21:12;;;;;;;7.90;4.78;;;;;;;29.76;41.25;94713.69;5051544;28;20204;-81
2022/05/31 05:23:40;;;;;;;8.90;4.60;;;;;;;30.34;40.62;94726.06;5051926;28;20578;-80
2022/05/31 05:26:07;;;;;;;10.32;4.97;;;;;;;31.57;38.54;94716.28;5051461;28;20594;-80
2022/05/31 05:31:24;;;;;;;7.78;4.82;;;;;;;30.49;40.60;94725.56;5051656;28;20768;-81
2022/05/31 05:33:51;;;;;;;10.35;5.13;;;;;;;31.64;37.73;94718.84;5051525;28;20199;-81
2022/05/31 05:36:18;;;;;;;7.75;4.30;;;;;;;32.08;36.82;94713.03;5051355;28;20766;-80
2022/05/31 05:38:45;;;;;;;8.80;5.03;;;;;;;30.62;39.76;94723.50;5050886;28;20609;-80
2022/05/31 05:41:12;;;;;;;7.38;4.72;;;;;;;28.29;43.70;94739.53;5051013;28;20231;-83
2022/05/31 05:43:40;;;;;;;7.13;4.57;;;;;;;29.98;40.87;94728.53;5047911;28;20197;-76
2022/05/31 05:46:13;;;;;;;8.43;5.15;;;;;;;31.62;38.05;94723.31;5039781;28;20242;-83
2022/05/31 05:48:46;;;;;;;9.15;4.80;;;;;;;31.42;38.09;94723.72;5040141;28;20630;-81
2022/05/31 05:51:17;;;;;;;10.43;5.10;;;;;;;30.68;39.39;94738.50;5039143;28;20206;-83
2022/05/31 05:53:44;;;;;;;8.40;5.03;;;;;;;29.67;40.76;94745.88;5040330;28;20221;-78
2022/05/31 05:56:12;;;;;;;11.77;4.60;;;;;;;29.20;41.83;94739.38;5036902;28;20231;-79
2022/05/31 05:58:40;;;;;;;6.82;4.57;;;;;;;29.73;41.29;94736.94;5041522;28;20248;-81
2022/05/31 06:01:10;;;;;;;12.13;4.50;;;;;;;31.08;38.46;94733.78;5039945;28;20204;-84
2022/05/31 06:03:43;;;;;;;9.90;4.28;;;;;;;30.71;39.48;94737.59;5041627;28;20196;-84
2022/05/31 06:06:14;;;;;;;6.68;4.78;;;;;;;29.65;41.40;94734.41;5040079;28;20713;-73
2022/05/31 06:08:49;;;;;;;8.13;5.22;;;;;;;28.42;45.00;94747.22;5044741;28;20215;-79
2022/05/31 06:11:19;;;;;;;11.90;4.32;;;;;;;29.77;41.52;94743.19;5040115;28;20195;-79
2022/05/31 06:13:52;;;;;;;7.63;4.82;;;;;;;30.08;40.69;94735.78;5050223;28;20594;-82
2022/05/31 06:16:20;;;;;;;8.45;4.55;;;;;;;30.40;39.58;94729.84;5037946;28;20200;-84
2022/05/31 06:18:52;;;;;;;9.68;5.22;;;;;;;31.04;39.43;94738.72;5050921;28;20269;-81
2022/05/31 06:21:22;;;;;;;11.90;5.60;;;;;;;30.50;39.66;94738.31;5050995;28;20698;-83
2022/05/31 06:23:50;;;;;;;6.65;4.85;;;;;;;32.40;37.15;94728.47;5052340;28;20210;-78
2022/05/31 06:26:18;;;;;;;9.48;4.85;;;;;;;31.07;38.54;94732.22;5050081;28;20271;-78
2022/05/31 06:28:45;;;;;;;9.68;5.38;;;;;;;29.94;40.16;94734.22;5036937;28;20736;-77
2022/05/31 06:31:11;;;;;;;6.63;5.10;;;;;;;30.41;39.94;94725.03;5050562;28;20200;-78
2022/05/31 06:33:38;;;;;;;9.93;5.32;;;;;;;31.75;37.51;94730.38;5050745;28;20203;-78
2022/05/31 06:36:07;;;;;;;7.55;5.47;;;;;;;32.85;36.00;94730.53;5050472;28;20211;-77
2022/05/31 06:38:38;;;;;;;10.48;5.00;;;;;;;33.76;34.71;94721.84;5050246;28;20768;-75
2022/05/31 06:41:05;;;;;;;8.93;5.45;;;;;;;34.03;33.94;94717.34;5050360;28;20192;-77
2022/05/31 06:43:34;;;;;;;14.43;5.50;;;;;;;33.95;33.65;94716.13;5055225;28;20211;-75
2022/05/31 06:46:05;;;;;;;8.68;5.03;;;;;;;33.88;33.63;94718.06;5042741;28;20309;-77
2022/05/31 06:48:32;;;;;;;6.00;4.45;;;;;;;33.43;34.18;94719.00;5049898;28;20319;-77
2022/05/31 06:50:59;;;;;;;8.75;5.43;;;;;;;34.49;33.17;94704.53;5050565;28;20207;-78
2022/05/31 06:58:57;;;;;;;11.65;5.25;;;;;;;35.20;31.93;94714.81;5049663;28;20354;-83
2022/05/31 07:01:30;;;;;;;10.63;5.40;;;;;;;33.04;35.82;94715.22;5037443;28;20311;-82
2022/05/31 07:03:59;;;;;;;8.15;5.95;;;;;;;33.04;35.30;94714.44;5050223;28;20653;-82
2022/05/31 07:06:26;;;;;;;10.25;5.82;;;;;;;31.11;38.28;94722.94;5035826;28;20318;-81
2022/05/31 07:08:53;;;;;;;12.13;5.97;;;;;;;30.36;40.13;94723.59;5050039;28;20207;-79
2022/05/31 07:11:22;;;;;;;8.27;6.28;;;;;;;32.09;37.08;94723.78;5050927;28;20210;-81
2022/05/31 07:13:50;;;;;;;8.93;5.68;;;;;;;33.64;34.79;94722.81;5049563;28;20235;-83
2022/05/31 07:16:17;;;;;;;11.45;6.72;;;;;;;31.36;38.32;94717.94;5050004;28;20199;-82
2022/05/31 07:18:44;;;;;;;12.05;5.97;;;;;;;31.70;38.42;94714.19;5050146;28;20621;-82
2022/05/31 07:21:11;;;;;;;10.57;6.10;;;;;;;30.48;39.77;94710.03;5050869;28;20230;-82
2022/05/31 07:23:40;;;;;;;9.85;6.47;;;;;;;30.51;40.08;94718.28;5049621;28;20219;-81
2022/05/31 07:26:08;;;;;;;12.73;6.65;;;;;;;30.84;40.06;94718.72;5050655;28;20331;-82
2022/05/31 07:28:36;;;;;;;15.70;6.68;;;;;;;30.59;39.76;94721.66;5050143;28;20224;-80
2022/05/31 07:31:03;;;;;;;11.52;6.28;;;;;;;32.09;37.11;94720.19;5050693;28;20203;-81
2022/05/31 07:33:30;;;;;;;9.50;5.88;;;;;;;31.56;38.54;94717.53;5051364;28;20670;-81
2022/05/31 07:35:57;;;;;;;14.43;7.70;;;;;;;30.62;39.30;94715.13;5053630;28;20659;-80
2022/05/31 07:38:26;;;;;;;19.15;7.45;;;;;;;31.89;37.44;94709.41;5053891;28;20579;-82
2022/05/31 07:40:53;;;;;;;13.13;5.65;;;;;;;32.41;37.06;94714.00;5054239;28;20232;-82
2022/05/31 07:43:20;;;;;;;11.38;6.47;;;;;;;32.68;36.32;94709.63;5053760;28;20243;-82
2022/05/31 07:45:48;;;;;;;14.75;7.03;;;;;;;32.02;37.08;94712.06;5053664;28;20196;-83
2022/05/31 07:48:15;;;;;;;13.27;6.57;;;;;;;30.98;39.14;94706.19;5053493;28;20239;-83
2022/05/31 07:50:42;;;;;;;9.80;6.38;;;;;;;29.68;41.42;94713.94;5053817;28;20223;-81
2022/05/31 07:53:08;;;;;;;10.90;6.97;;;;;;;29.86;40.88;94706.97;5053543;28;20269;-82
2022/05/31 07:55:35;;;;;;;8.20;6.00;;;;;;;29.95;40.92;94704.25;5053038;28;20547;-83
2022/05/31 08:01:00;;;;;;;10.90;6.25;;;;;;;31.93;38.30;94703.66;5031139;28;20601;-82
2022/05/31 08:03:27;;;;;;;13.23;6.25;;;;;;;31.54;39.23;94708.03;5047712;28;20211;-83
2022/05/31 08:05:54;;;;;;;6.80;4.57;;;;;;;29.62;39.42;94704.56;5053044;28;20215;-83
2022/05/31 08:08:21;;;;;;;15.38;5.68;;;;;;;30.03;40.48;94705.63;5053510;28;20238;-83
2022/05/31 08:10:48;;;;;;;16.55;7.43;;;;;;;30.64;39.59;94698.66;5053320;28;20203;-83
2022/05/31 08:13:16;;;;;;;12.73;5.93;;;;;;;30.73;39.99;94707.94;5052726;28;20242;-81
2022/05/31 08:15:42;;;;;;;8.57;4.82;;;;;;;29.78;40.45;94711.25;5053417;28;20218;-82
2022/05/31 08:18:11;;;;;;;8.75;5.00;;;;;;;29.35;40.89;94712.59;5053282;28;20206;-82
2022/05/31 08:20:39;;;;;;;8.82;5.03;;;;;;;29.41;41.58;94712.84;5052743;28;20227;-82
2022/05/31 08:23:06;;;;;;;7.43;4.55;;;;;;;29.80;40.37;94692.00;5053064;28;20223;-83
2022/05/31 08:25:34;;;;;;;7.93;5.05;;;;;;;29.16;41.22;94705.22;5052685;28;20269;-74
2022/05/31 08:28:01;;;;;;;8.73;4.70;;;;;;;29.47;40.22;94695.09;5052813;28;20258;-81
2022/05/31 08:30:28;;;;;;;9.27;5.20;;;;;;;30.31;39.03;94693.44;5053146;28;20216;-82
2022/05/31 08:32:55;;;;;;;11.73;5.05;;;;;;;30.52;38.65;94685.50;5052994;28;20207;-80
2022/05/31 08:35:23;;;;;;;10.60;5.60;;;;;;;30.27;40.42;94687.19;5053046;28;20200;-82
2022/05/31 08:37:50;;;;;;;8.57;4.53;;;;;;;29.37;41.98;94687.03;5052712;28;20224;-77
2022/05/31 08:40:17;;;;;;;11.40;4.90;;;;;;;28.92;41.29;94697.16;5052756;28;20666;-81
2022/05/31 08:42:51;;;;;;;8.18;4.50;;;;;;;29.58;40.05;94686.34;5052551;28;20590;-80
2022/05/31 08:45:32;;;;;;;9.77;4.68;;;;;;;30.04;39.31;94673.66;5051936;28;20203;-81
2022/05/31 08:48:07;;;;;;;5.72;4.35;;;;;;;29.34;39.63;94674.75;5052388;28;20251;-80
2022/05/31 08:53:35;;;;;;;8.07;4.82;;;;;;;30.29;39.15;94667.97;5039292;28;20273;-78
2022/05/31 08:59:00;;;;;;;5.78;4.10;;;;;;;30.14;38.53;94661.31;5052410;28;20357;-81
2022/05/31 09:01:32;;;;;;;5.97;3.75;;;;;;;30.47;39.04;94677.72;5051994;28;20273;-79
2022/05/31 09:04:06;;;;;;;4.65;3.08;;;;;;;29.38;38.96;94671.84;5051998;28;20613;-76
2022/05/31 09:06:43;;;;;;;6.47;4.05;;;;;;;28.65;41.56;94682.81;5039511;28;20253;-79
2022/05/31 09:09:14;;;;;;;6.53;3.90;;;;;;;29.05;41.21;94671.28;5052147;28;20195;-79
2022/05/31 09:11:47;;;;;;;4.20;3.10;;;;;;;28.99;38.86;94669.03;5052131;28;20195;-79
2022/05/31 09:14:20;;;;;;;7.53;3.65;;;;;;;28.49;40.67;94678.09;5051862;28;20236;-78
2022/05/31 09:16:52;;;;;;;9.15;3.75;;;;;;;28.17;41.47;94678.16;5052220;28;20206;-83
2022/05/31 09:19:24;;;;;;;5.38;3.22;;;;;;;28.79;41.37;94664.91;5051689;28;20223;-80
2022/05/31 09:21:53;;;;;;;6.65;3.75;;;;;;;27.52;42.11;94684.59;5051794;28;20259;-76
2022/05/31 09:24:22;;;;;;;9.07;3.38;;;;;;;27.70;41.83;94675.06;5051824;28;20223;-80
2022/05/31 09:27:06;;;;;;;9.00;4.10;;;;;;;27.49;42.87;94670.78;5050934;28;20227;-74
2022/05/31 09:29:48;;;;;;;9.45;4.28;;;;;;;27.70;42.53;94672.28;5051657;28;20669;-80
2022/05/31 09:32:30;;;;;;;9.70;4.05;;;;;;;27.96;43.25;94662.81;5052404;28;20483;-80
2022/05/31 09:35:11;;;;;;;6.97;4.40;;;;;;;29.03;40.70;94660.56;5051890;28;20219;-79
2022/05/31 09:37:56;;;;;;;5.70;3.90;;;;;;;29.38;40.38;94655.91;5051757;28;20288;-81
2022/05/31 09:40:37;;;;;;;7.97;3.72;;;;;;;29.48;40.27;94651.97;5051548;28;20310;-80
2022/05/31 09:43:09;;;;;;;10.05;3.90;;;;;;;29.11;39.88;94652.78;5051483;28;20187;-80
2022/05/31 09:45:41;;;;;;;5.68;4.00;;;;;;;29.41;41.03;94651.41;5052110;28;20306;-81
2022/05/31 09:48:08;;;;;;;7.28;3.88;;;;;;;29.15;39.64;94647.84;5050880;28;20720;-81
2022/05/31 09:50:35;;;;;;;7.53;4.25;;;;;;;29.50;39.65;94652.31;5051339;28;20228;-78
2022/05/31 09:57:05;;;;;;;5.70;3.75;;;;;;;28.27;41.19;94657.63;5051352;28;20543;-74
2022/05/31 09:58:38;;;;;;;8.70;3.92;;;;;;;28.09;40.99;94657.31;5038717;28;20272;-78
2022/05/31 10:01:21;;;;;;;8.55;5.25;;;;;;;28.97;40.08;94646.38;5051365;28;20200;-81
2022/05/31 10:03:53;;;;;;;7.03;4.03;;;;;;;29.63;39.08;94644.69;5051524;28;20234;-84
2022/05/31 10:06:22;;;;;;;9.35;4.00;;;;;;;28.62;40.79;94644.66;5051154;28;20226;-80
2022/05/31 10:08:52;;;;;;;5.30;3.50;;;;;;;28.72;41.08;94648.34;5051249;28;20238;-81
2022/05/31 10:11:32;;;;;;;6.32;3.92;;;;;;;28.77;40.02;94645.78;5050556;28;20271;-79
2022/05/31 10:14:01;;;;;;;6.10;3.42;;;;;;;29.52;40.10;94638.66;5050917;28;20235;-81
2022/05/31 10:16:31;;;;;;;7.18;4.07;;;;;;;29.37;39.90;94640.34;5050923;28;20234;-78
2022/05/31 10:19:00;;;;;;;8.23;4.57;;;;;;;29.17;40.40;94646.16;5050991;28;20219;-78
2022/05/31 10:21:32;;;;;;;7.22;4.05;;;;;;;28.76;40.29;94643.44;5050851;28;20224;-81
2022/05/31 10:24:06;;;;;;;11.95;4.40;;;;;;;28.22;40.77;94638.66;5050361;28;20227;-80
2022/05/31 10:26:38;;;;;;;5.90;3.55;;;;;;;27.88;41.47;94639.94;5050844;28;20246;-79
2022/05/31 10:29:08;;;;;;;4.32;3.38;;;;;;;27.00;43.38;94639.38;5050093;28;20255;-74
2022/05/31 10:31:37;;;;;;;6.38;3.70;;;;;;;27.65;42.68;94633.81;5051200;28;20220;-81
2022/05/31 10:34:07;;;;;;;8.30;3.33;;;;;;;28.36;41.59;94640.25;5050802;28;20223;-80
2022/05/31 10:36:48;;;;;;;5.40;3.53;;;;;;;28.64;39.41;94620.69;5050505;28;20203;-78
2022/05/31 10:39:24;;;;;;;6.30;3.70;;;;;;;29.47;38.31;94614.13;5040642;28;20630;-79
2022/05/31 10:41:54;;;;;;;7.05;3.78;;;;;;;29.35;39.30;94612.88;5048647;28;20592;-80
2022/05/31 10:44:29;;;;;;;6.75;3.67;;;;;;;29.64;39.34;94612.75;5050665;28;20219;-82
2022/05/31 10:47:02;;;;;;;6.45;3.38;;;;;;;29.58;38.45;94602.59;5050693;28;20230;-80
2022/05/31 10:49:30;;;;;;;4.38;3.10;;;;;;;28.86;40.90;94608.91;5047639;28;20228;-81
2022/05/31 10:52:05;;;;;;;9.05;3.75;;;;;;;29.22;42.67;94598.19;5038571;28;20261;-81
2022/05/31 10:54:49;;;;;;;7.28;4.07;;;;;;;29.48;39.08;94598.16;5049496;28;20227;-84
2022/05/31 10:57:30;;;;;;;7.60;3.40;;;;;;;29.24;38.86;94600.53;5050627;28;20199;-84
2022/05/31 11:00:05;;;;;;;7.22;3.90;;;;;;;29.00;39.06;94595.28;5049525;28;20243;-80
2022/05/31 11:02:54;;;;;;;7.32;3.80;;;;;;;29.18;40.60;94589.13;5047154;28;20219;-82
2022/05/31 11:05:30;;;;;;;10.50;3.40;;;;;;;29.49;38.01;94588.56;5046975;28;20199;-80
2022/05/31 11:14:06;;;;;;;4.43;3.05;;;;;;;29.90;38.76;94570.75;5046841;28;20641;-83
2022/05/31 11:16:48;;;;;;;8.35;3.40;;;;;;;29.05;39.86;94577.22;5042449;28;20267;-78
2022/05/31 11:19:30;;;;;;;5.63;3.47;;;;;;;28.62;40.91;94566.59;5041175;28;20219;-81
2022/05/31 11:22:14;;;;;;;6.05;3.35;;;;;;;29.05;39.81;94570.84;5046136;28;20215;-80
2022/05/31 11:25:14;;;;;;;5.45;2.97;;;;;;;29.56;36.16;94555.56;5038370;28;20191;-81
2022/05/31 11:27:52;;;;;;;5.43;2.53;;;;;;;30.27;34.50;94555.81;5041039;28;20227;-80
2022/05/31 11:30:22;;;;;;;5.93;2.80;;;;;;;30.14;35.54;94552.31;5042469;28;20192;-78
2022/05/31 11:33:24;;;;;;;5.45;2.83;;;;;;;30.27;35.09;94550.22;5040655;28;20736;-80
2022/05/31 11:36:08;;;;;;;6.25;2.65;;;;;;;29.99;35.26;94554.06;5041554;28;20242;-77
2022/05/31 11:38:43;;;;;;;7.10;3.00;;;;;;;28.70;37.53;94556.00;5052489;28;20698;-77
2022/05/31 11:41:22;;;;;;;6.90;2.92;;;;;;;28.72;38.78;94545.16;5046071;28;20196;-84
2022/05/31 11:44:27;;;;;;;5.90;2.53;;;;;;;28.59;38.83;94548.75;5043490;28;20187;-77
2022/05/31 11:47:08;;;;;;;3.67;2.47;;;;;;;29.31;38.38;94544.44;5012673;28;20220;-77
2022/05/31 11:49:44;;;;;;;6.78;3.58;;;;;;;30.16;34.93;94533.09;5038476;28;20199;-78
2022/05/31 11:52:23;;;;;;;5.78;2.60;;;;;;;30.16;35.47;94540.69;5049443;28;20601;-77
2022/05/31 11:55:28;;;;;;;5.40;2.60;;;;;;;29.87;35.48;94535.34;5050174;28;20227;-78
2022/05/31 11:58:19;;;;;;;2.60;2.33;;;;;;;28.97;36.15;94548.75;5052274;28;20199;-74
2022/05/31 12:00:55;;;;;;;7.68;2.55;;;;;;;29.27;35.10;94533.41;5050769;28;20215;-79
2022/05/31 12:03:33;;;;;;;8.23;2.70;;;;;;;29.67;36.73;94539.22;5052161;28;20222;-75
2022/05/31 12:06:07;;;;;;;8.32;2.33;;;;;;;29.30;35.20;94537.31;5051487;28;20195;-74
2022/05/31 12:08:42;;;;;;;6.30;2.42;;;;;;;29.21;36.83;94534.44;5052336;28;20310;-75
2022/05/31 12:11:16;;;;;;;2.92;2.22;;;;;;;28.80;36.61;94538.97;5052768;28;20912;-69
2022/05/31 12:13:45;;;;;;;3.10;2.15;;;;;;;29.05;37.65;94527.00;5052379;28;20231;-77